createdAt,value
2019-03-20T00:00:56.786Z,1.00
2019-03-20T00:03:02.173Z,0.90
2019-03-20T00:05:07.991Z,0.80
2019-03-20T00:07:13.409Z,0.70
2019-03-20T00:09:18.858Z,0.70
2019-03-20T00:11:24.195Z,0.70
2019-03-20T00:13:29.597Z,0.70
2019-03-20T00:15:34.952Z,0.70
2019-03-20T00:17:41.156Z,0.70
2019-03-20T00:19:46.499Z,0.60
2019-03-20T00:21:51.918Z,0.60
2019-03-20T00:23:57.341Z,0.70
2019-03-20T00:26:02.774Z,0.70
2019-03-20T00:28:08.201Z,0.60
2019-03-20T00:30:15.745Z,0.50
2019-03-20T00:32:21.236Z,0.60
2019-03-20T00:34:26.590Z,0.50
2019-03-20T00:36:32.010Z,0.50
2019-03-20T00:38:37.428Z,0.40
2019-03-20T00:40:43.847Z,0.30
2019-03-20T00:42:49.187Z,0.40
2019-03-20T00:44:54.540Z,0.50
2019-03-20T00:46:59.884Z,0.40
2019-03-20T00:49:05.224Z,0.30
2019-03-20T00:51:10.577Z,0.40
2019-03-20T00:53:15.928Z,0.50
2019-03-20T00:55:21.265Z,0.40
2019-03-20T00:57:26.669Z,0.30
2019-03-20T00:59:32.089Z,0.30
2019-03-20T01:01:37.427Z,0.30
2019-03-20T01:03:42.775Z,0.30
2019-03-20T01:05:48.138Z,0.20
2019-03-20T01:07:53.488Z,0.10
2019-03-20T01:09:58.836Z,0.10
2019-03-20T01:12:04.185Z,0.10
2019-03-20T01:14:09.517Z,0.00
2019-03-20T01:16:14.860Z,0.00
2019-03-20T01:18:22.376Z,0.10
2019-03-20T01:20:27.180Z,0.00
2019-03-20T01:22:32.513Z,0.00
2019-03-20T01:24:37.865Z,0.00
2019-03-20T01:26:43.205Z,0.00
2019-03-20T01:28:48.544Z,0.00
2019-03-20T01:31:05.384Z,0.00
2019-03-20T01:33:13.242Z,0.00
2019-03-20T01:35:23.819Z,0.00
2019-03-20T01:37:25.923Z,-0.10
2019-03-20T01:39:31.449Z,0.00
2019-03-20T01:41:38.177Z,0.00
2019-03-20T01:43:44.017Z,0.00
2019-03-20T01:45:49.536Z,-0.10
2019-03-20T01:47:55.074Z,-0.10
2019-03-20T01:50:00.620Z,-0.10
2019-03-20T01:52:06.232Z,-0.10
2019-03-20T01:54:11.764Z,-0.10
2019-03-20T01:56:17.482Z,-0.10
2019-03-20T01:58:23.005Z,-0.10
2019-03-20T02:00:28.679Z,-0.20
2019-03-20T02:02:34.257Z,-0.20
2019-03-20T02:04:39.855Z,-0.30
2019-03-20T02:06:45.385Z,-0.30
2019-03-20T02:08:50.929Z,-0.30
2019-03-20T02:10:56.464Z,-0.30
2019-03-20T02:13:01.999Z,-0.30
2019-03-20T02:15:10.775Z,-0.30
2019-03-20T02:17:16.478Z,-0.30
2019-03-20T02:19:22.016Z,-0.20
2019-03-20T02:21:27.588Z,-0.30
2019-03-20T02:23:33.185Z,-0.30
2019-03-20T02:25:38.725Z,-0.30
2019-03-20T02:27:44.341Z,-0.30
2019-03-20T02:29:49.884Z,-0.30
2019-03-20T02:31:55.422Z,-0.30
2019-03-20T02:34:00.958Z,-0.30
2019-03-20T02:36:06.569Z,-0.30
2019-03-20T02:38:12.100Z,-0.40
2019-03-20T02:40:17.640Z,-0.40
2019-03-20T02:42:23.177Z,-0.40
2019-03-20T02:44:28.705Z,-0.40
2019-03-20T02:46:34.252Z,-0.40
2019-03-20T02:48:39.786Z,-0.40
2019-03-20T02:50:45.309Z,-0.40
2019-03-20T02:52:50.889Z,-0.50
2019-03-20T02:54:56.405Z,-0.50
2019-03-20T02:57:01.943Z,-0.50
2019-03-20T02:59:07.461Z,-0.50
2019-03-20T03:01:13.000Z,-0.50
2019-03-20T03:03:18.607Z,-0.50
2019-03-20T03:05:24.218Z,-0.60
2019-03-20T03:07:29.761Z,-0.60
2019-03-20T03:09:35.292Z,-0.50
2019-03-20T03:11:40.828Z,-0.60
2019-03-20T03:13:46.358Z,-0.50
2019-03-20T03:15:51.973Z,-0.50
2019-03-20T03:17:57.508Z,-0.50
2019-03-20T03:20:04.098Z,-0.40
2019-03-20T03:22:09.633Z,-0.50
2019-03-20T03:24:15.179Z,-0.50
2019-03-20T03:26:20.712Z,-0.50
2019-03-20T03:28:26.244Z,-0.60
2019-03-20T03:30:31.834Z,-0.60
2019-03-20T03:32:37.401Z,-0.60
2019-03-20T03:34:42.971Z,-0.50
2019-03-20T03:36:48.504Z,-0.50
2019-03-20T03:38:54.048Z,-0.50
2019-03-20T03:40:59.589Z,-0.40
2019-03-20T03:43:05.189Z,-0.50
2019-03-20T03:45:31.589Z,-0.50
2019-03-20T03:47:37.122Z,-0.50
2019-03-20T03:49:42.652Z,-0.60
2019-03-20T03:51:48.188Z,-0.60
2019-03-20T03:53:54.834Z,-0.60
2019-03-20T03:56:00.366Z,-0.70
2019-03-20T03:58:05.965Z,-0.70
2019-03-20T04:00:16.389Z,-0.70
2019-03-20T04:02:21.875Z,-0.70
2019-03-20T04:04:27.420Z,-0.70
2019-03-20T04:06:35.927Z,-0.80
2019-03-20T04:08:40.192Z,-0.80
2019-03-20T04:10:45.738Z,-0.80
2019-03-20T04:12:51.277Z,-0.70
2019-03-20T04:14:56.948Z,-0.80
2019-03-20T04:17:02.489Z,-0.70
2019-03-20T04:19:08.033Z,-0.70
2019-03-20T04:21:13.570Z,-0.70
2019-03-20T04:23:19.114Z,-0.70
2019-03-20T04:25:24.720Z,-0.70
2019-03-20T04:27:30.261Z,-0.60
2019-03-20T04:29:35.840Z,-0.70
2019-03-20T04:31:41.392Z,-0.80
2019-03-20T04:33:46.914Z,-0.80
2019-03-20T04:35:52.487Z,-0.90
2019-03-20T04:37:58.008Z,-0.90
2019-03-20T04:40:04.587Z,-0.80
2019-03-20T04:42:10.150Z,-0.90
2019-03-20T04:44:15.674Z,-0.90
2019-03-20T04:46:21.217Z,-0.90
2019-03-20T04:48:26.757Z,-0.80
2019-03-20T04:50:32.286Z,-0.90
2019-03-20T04:52:37.836Z,-0.90
2019-03-20T04:54:43.373Z,-0.80
2019-03-20T04:56:48.904Z,-0.80
2019-03-20T04:58:54.460Z,-0.80
2019-03-20T05:01:01.141Z,-0.90
2019-03-20T05:03:06.697Z,-0.90
2019-03-20T05:05:12.374Z,-0.90
2019-03-20T05:07:17.913Z,-0.90
2019-03-20T05:09:23.492Z,-0.90
2019-03-20T05:11:29.027Z,-0.90
2019-03-20T05:13:34.567Z,-0.90
2019-03-20T05:15:40.104Z,-0.90
2019-03-20T05:17:45.712Z,-0.90
2019-03-20T05:19:51.254Z,-0.90
2019-03-20T05:21:56.820Z,-0.80
2019-03-20T05:24:02.356Z,-0.70
2019-03-20T05:26:07.905Z,-0.70
2019-03-20T05:28:13.484Z,-0.70
2019-03-20T05:30:19.029Z,-0.60
2019-03-20T05:32:27.708Z,-0.60
2019-03-20T05:34:33.353Z,-0.60
2019-03-20T05:36:38.907Z,-0.50
2019-03-20T05:38:44.436Z,-0.60
2019-03-20T05:40:49.993Z,-0.50
2019-03-20T05:42:55.529Z,-0.50
2019-03-20T05:45:01.144Z,-0.40
2019-03-20T05:47:06.757Z,-0.40
2019-03-20T05:49:12.292Z,-0.10
2019-03-20T05:51:17.833Z,0.00
2019-03-20T05:53:23.369Z,0.00
2019-03-20T05:55:28.895Z,0.00
2019-03-20T05:57:34.444Z,0.10
2019-03-20T05:59:40.003Z,0.10
2019-03-20T06:01:45.534Z,0.20
2019-03-20T06:03:51.061Z,0.30
2019-03-20T06:05:56.604Z,0.50
2019-03-20T06:08:02.129Z,0.60
2019-03-20T06:10:13.017Z,0.70
2019-03-20T06:12:18.591Z,0.90
2019-03-20T06:14:24.112Z,1.20
2019-03-20T06:16:29.647Z,1.30
2019-03-20T06:18:35.270Z,1.40
2019-03-20T06:20:40.805Z,1.60
2019-03-20T06:22:46.356Z,1.90
2019-03-20T06:24:51.900Z,2.10
2019-03-20T06:26:57.421Z,2.60
2019-03-20T06:29:02.972Z,3.00
2019-03-20T06:31:08.529Z,3.50
2019-03-20T06:33:14.053Z,3.90
2019-03-20T06:35:19.654Z,4.20
2019-03-20T06:37:32.482Z,4.60
2019-03-20T06:39:32.371Z,4.60
2019-03-20T06:41:37.918Z,5.00
2019-03-20T06:43:43.473Z,5.20
2019-03-20T06:45:49.001Z,5.50
2019-03-20T06:47:54.526Z,5.90
2019-03-20T06:50:00.068Z,5.80
2019-03-20T06:52:05.590Z,6.20
2019-03-20T06:54:11.130Z,6.60
2019-03-20T06:56:16.671Z,6.80
2019-03-20T06:58:23.268Z,7.10
2019-03-20T07:00:40.791Z,6.80
2019-03-20T07:02:46.948Z,6.60
2019-03-20T07:05:04.294Z,7.20
2019-03-20T07:07:15.348Z,8.00
2019-03-20T07:09:32.068Z,8.40
2019-03-20T07:11:40.469Z,8.30
2019-03-20T07:13:46.133Z,8.30
2019-03-20T07:15:51.664Z,8.50
2019-03-20T07:17:57.254Z,8.50
2019-03-20T07:20:02.737Z,7.90
2019-03-20T07:22:08.270Z,7.70
2019-03-20T07:24:13.825Z,7.90
2019-03-20T07:26:19.351Z,8.00
2019-03-20T07:28:24.885Z,8.40
2019-03-20T07:30:30.426Z,9.30
2019-03-20T07:32:36.015Z,9.30
2019-03-20T07:34:41.549Z,9.80
2019-03-20T07:36:47.104Z,10.30
2019-03-20T07:38:52.650Z,10.40
2019-03-20T07:40:58.196Z,10.70
2019-03-20T07:43:08.764Z,11.10
2019-03-20T07:45:11.112Z,10.60
2019-03-20T07:47:16.652Z,10.80
2019-03-20T07:49:22.227Z,10.90
2019-03-20T07:51:27.753Z,10.90
2019-03-20T07:53:33.266Z,10.10
2019-03-20T07:55:58.179Z,10.10
2019-03-20T07:58:03.776Z,10.40
2019-03-20T08:00:12.303Z,10.70
2019-03-20T08:02:17.879Z,10.60
2019-03-20T08:04:23.423Z,10.80
2019-03-20T08:06:28.966Z,10.40
2019-03-20T08:08:34.496Z,10.50
2019-03-20T08:10:41.104Z,11.10
2019-03-20T08:12:46.631Z,11.50
2019-03-20T08:14:53.238Z,11.20
2019-03-20T08:16:58.833Z,11.20
2019-03-20T08:19:04.500Z,10.50
2019-03-20T08:21:10.025Z,10.70
2019-03-20T08:23:15.553Z,11.20
2019-03-20T08:25:21.153Z,10.30
2019-03-20T08:27:26.757Z,10.50
2019-03-20T08:29:33.463Z,11.00
2019-03-20T08:31:39.009Z,11.00
2019-03-20T08:33:44.541Z,11.40
2019-03-20T08:35:50.061Z,11.50
2019-03-20T08:37:55.598Z,11.50
2019-03-20T08:40:01.137Z,11.70
2019-03-20T08:42:07.936Z,11.60
2019-03-20T08:44:13.469Z,11.60
2019-03-20T08:46:19.009Z,11.40
2019-03-20T08:48:24.520Z,11.80
2019-03-20T08:50:30.121Z,12.00
2019-03-20T08:52:35.723Z,12.30
2019-03-20T08:54:41.256Z,12.20
2019-03-20T08:56:46.800Z,12.60
2019-03-20T08:58:52.489Z,12.40
2019-03-20T09:00:58.088Z,12.20
2019-03-20T09:03:03.698Z,12.20
2019-03-20T09:05:11.949Z,12.00
2019-03-20T09:07:17.528Z,11.90
2019-03-20T09:09:23.049Z,12.30
2019-03-20T09:11:28.586Z,11.80
2019-03-20T09:13:34.116Z,11.80
2019-03-20T09:15:39.647Z,12.30
2019-03-20T09:17:45.257Z,12.50
2019-03-20T09:19:50.795Z,12.70
2019-03-20T09:21:56.319Z,12.20
2019-03-20T09:24:01.836Z,12.20
2019-03-20T09:26:07.356Z,12.30
2019-03-20T09:28:12.893Z,11.50
2019-03-20T09:30:23.246Z,11.20
2019-03-20T09:32:28.833Z,11.30
2019-03-20T09:34:34.360Z,11.30
2019-03-20T09:36:43.409Z,10.80
2019-03-20T09:38:47.097Z,10.60
2019-03-20T09:40:52.620Z,10.50
2019-03-20T09:42:58.140Z,10.50
2019-03-20T09:45:04.464Z,10.70
2019-03-20T09:47:09.993Z,11.00
2019-03-20T09:49:16.596Z,11.10
2019-03-20T09:51:22.112Z,11.40
2019-03-20T09:53:27.641Z,11.70
2019-03-20T09:55:33.152Z,11.90
2019-03-20T09:57:38.671Z,12.10
2019-03-20T09:59:45.949Z,12.30
2019-03-20T10:01:51.344Z,12.30
2019-03-20T10:03:56.862Z,12.00
2019-03-20T10:06:02.417Z,11.30
2019-03-20T10:08:07.937Z,10.70
2019-03-20T10:10:30.332Z,10.00
2019-03-20T10:12:35.852Z,9.40
2019-03-20T10:14:41.383Z,9.00
2019-03-20T10:16:46.896Z,9.10
2019-03-20T10:18:53.394Z,8.90
2019-03-20T10:20:58.911Z,8.80
2019-03-20T10:23:04.778Z,8.50
2019-03-20T10:25:10.716Z,8.40
2019-03-20T10:27:16.238Z,8.40
2019-03-20T10:29:21.793Z,8.40
2019-03-20T10:31:27.321Z,8.20
2019-03-20T10:33:34.106Z,8.40
2019-03-20T10:35:49.707Z,8.50
2019-03-20T10:37:46.784Z,8.80
2019-03-20T10:39:52.301Z,9.10
2019-03-20T10:41:57.845Z,9.30
2019-03-20T10:44:03.355Z,9.30
2019-03-20T10:46:08.852Z,9.40
2019-03-20T10:48:14.382Z,9.30
2019-03-20T10:50:25.835Z,9.50
2019-03-20T10:52:31.361Z,9.20
2019-03-20T10:54:36.957Z,9.00
2019-03-20T10:56:42.533Z,8.90
2019-03-20T10:58:48.072Z,8.80
2019-03-20T11:00:53.588Z,8.70
2019-03-20T11:02:59.108Z,8.60
2019-03-20T11:05:07.052Z,8.90
2019-03-20T11:07:12.576Z,9.00
2019-03-20T11:09:18.827Z,8.60
2019-03-20T11:11:27.356Z,8.90
2019-03-20T11:13:31.622Z,8.90
2019-03-20T11:15:37.133Z,9.20
2019-03-20T11:17:42.788Z,9.60
2019-03-20T11:19:48.507Z,10.10
2019-03-20T11:21:55.101Z,10.90
2019-03-20T11:24:01.705Z,11.60
2019-03-20T11:26:07.505Z,11.90
2019-03-20T11:28:13.097Z,12.10
2019-03-20T11:30:24.091Z,12.20
2019-03-20T11:32:29.667Z,11.80
2019-03-20T11:34:35.225Z,11.00
2019-03-20T11:36:41.820Z,10.40
2019-03-20T11:38:47.346Z,9.80
2019-03-20T11:40:52.930Z,9.70
2019-03-20T11:42:58.456Z,9.50
2019-03-20T11:45:05.809Z,9.20
2019-03-20T11:47:11.360Z,9.00
2019-03-20T11:49:16.948Z,9.00
2019-03-20T11:51:22.467Z,9.10
2019-03-20T11:53:28.000Z,9.00
2019-03-20T11:55:33.525Z,8.70
2019-03-20T11:57:39.105Z,8.70
2019-03-20T11:59:44.646Z,8.70
2019-03-20T12:01:50.163Z,9.00
2019-03-20T12:03:55.679Z,9.30
2019-03-20T12:06:01.206Z,9.80
2019-03-20T12:08:06.874Z,9.80
2019-03-20T12:10:15.490Z,10.40
2019-03-20T12:12:21.017Z,10.80
2019-03-20T12:14:26.540Z,10.80
2019-03-20T12:16:32.056Z,10.80
2019-03-20T12:18:37.603Z,10.70
2019-03-20T12:20:43.128Z,10.50
2019-03-20T12:22:49.797Z,10.10
2019-03-20T12:24:55.327Z,10.00
2019-03-20T12:27:00.907Z,9.80
2019-03-20T12:29:06.443Z,9.70
2019-03-20T12:31:12.028Z,9.70
2019-03-20T12:33:17.555Z,9.50
2019-03-20T12:35:24.420Z,9.50
2019-03-20T12:37:29.960Z,9.70
2019-03-20T12:39:35.469Z,9.50
2019-03-20T12:41:40.979Z,9.60
2019-03-20T12:43:46.519Z,9.90
2019-03-20T12:45:52.040Z,9.70
2019-03-20T12:47:57.572Z,9.60
2019-03-20T12:50:03.663Z,9.60
2019-03-20T12:52:09.201Z,9.30
2019-03-20T12:54:14.730Z,9.50
2019-03-20T12:56:20.339Z,9.50
2019-03-20T12:58:25.855Z,9.40
2019-03-20T13:00:31.457Z,9.30
2019-03-20T13:02:37.076Z,9.40
2019-03-20T13:04:42.612Z,9.30
2019-03-20T13:06:48.136Z,9.30
2019-03-20T13:08:53.660Z,9.30
2019-03-20T13:10:59.251Z,9.30
2019-03-20T13:13:05.852Z,8.90
2019-03-20T13:15:14.463Z,8.90
2019-03-20T13:17:19.991Z,8.70
2019-03-20T13:19:25.508Z,8.70
2019-03-20T13:21:31.180Z,8.60
2019-03-20T13:23:37.959Z,8.60
2019-03-20T13:25:44.440Z,8.70
2019-03-20T13:27:49.964Z,8.90
2019-03-20T13:29:55.487Z,8.90
2019-03-20T13:32:01.003Z,8.90
2019-03-20T13:34:06.524Z,8.90
2019-03-20T13:36:12.116Z,9.10
2019-03-20T13:38:17.700Z,9.20
2019-03-20T13:40:23.237Z,9.10
2019-03-20T13:42:28.850Z,9.10
2019-03-20T13:44:34.474Z,8.90
2019-03-20T13:46:40.070Z,8.90
2019-03-20T13:48:45.588Z,8.70
2019-03-20T13:50:51.185Z,8.60
2019-03-20T13:52:56.708Z,8.50
2019-03-20T13:55:02.229Z,8.60
2019-03-20T13:57:08.817Z,8.60
2019-03-20T13:59:14.336Z,8.60
2019-03-20T14:01:19.852Z,8.70
2019-03-20T14:03:25.484Z,8.70
2019-03-20T14:05:31.004Z,8.60
2019-03-20T14:07:36.520Z,8.50
2019-03-20T14:09:42.075Z,8.40
2019-03-20T14:11:47.585Z,8.30
2019-03-20T14:13:53.104Z,8.30
2019-03-20T14:15:58.634Z,8.30
2019-03-20T14:18:04.415Z,8.20
2019-03-20T14:20:15.195Z,8.20
2019-03-20T14:22:20.800Z,8.20
2019-03-20T14:24:26.298Z,8.40
2019-03-20T14:26:31.812Z,8.60
2019-03-20T14:28:37.350Z,8.80
2019-03-20T14:30:42.933Z,9.00
2019-03-20T14:32:48.438Z,9.10
2019-03-20T14:35:06.462Z,8.70
2019-03-20T14:37:11.983Z,8.60
2019-03-20T14:39:17.515Z,8.50
2019-03-20T14:41:23.038Z,8.40
2019-03-20T14:43:28.575Z,8.30
2019-03-20T14:45:34.093Z,8.40
2019-03-20T14:47:42.183Z,8.40
2019-03-20T14:49:46.807Z,8.50
2019-03-20T14:51:52.317Z,8.30
2019-03-20T14:53:57.836Z,8.30
2019-03-20T14:56:03.352Z,8.30
2019-03-20T14:58:08.875Z,8.20
2019-03-20T15:00:22.186Z,8.30
2019-03-20T15:02:27.717Z,8.50
2019-03-20T15:04:33.253Z,8.50
2019-03-20T15:06:59.193Z,8.30
2019-03-20T15:09:05.612Z,8.20
2019-03-20T15:11:10.932Z,8.10
2019-03-20T15:13:16.448Z,8.10
2019-03-20T15:15:34.042Z,8.00
2019-03-20T15:17:39.557Z,8.00
2019-03-20T15:19:45.085Z,7.90
2019-03-20T15:21:50.620Z,8.00
2019-03-20T15:23:56.136Z,7.90
2019-03-20T15:26:01.661Z,7.90
2019-03-20T15:28:07.196Z,7.90
2019-03-20T15:30:21.233Z,7.90
2019-03-20T15:32:26.753Z,7.90
2019-03-20T15:34:32.319Z,7.90
2019-03-20T15:36:38.904Z,7.80
2019-03-20T15:38:44.514Z,7.80
2019-03-20T15:40:56.073Z,7.70
2019-03-20T15:42:57.238Z,7.80
2019-03-20T15:45:02.823Z,7.80
2019-03-20T15:47:22.013Z,7.80
2019-03-20T15:49:27.528Z,7.80
2019-03-20T15:51:33.044Z,7.80
2019-03-20T15:53:38.581Z,7.90
2019-03-20T15:55:44.883Z,7.90
2019-03-20T15:57:50.392Z,7.90
2019-03-20T15:59:55.932Z,8.00
2019-03-20T16:02:01.462Z,8.00
2019-03-20T16:04:07.053Z,7.90
2019-03-20T16:06:12.645Z,7.90
2019-03-20T16:08:18.116Z,8.10
2019-03-20T16:10:23.995Z,8.00
2019-03-20T16:12:29.691Z,8.00
2019-03-20T16:14:35.201Z,7.90
2019-03-20T16:16:40.711Z,8.10
2019-03-20T16:18:46.245Z,8.00
2019-03-20T16:20:51.775Z,7.90
2019-03-20T16:22:57.431Z,7.80
2019-03-20T16:25:14.705Z,7.70
2019-03-20T16:27:20.292Z,7.70
2019-03-20T16:29:25.901Z,7.70
2019-03-20T16:31:31.420Z,7.70
2019-03-20T16:33:37.003Z,7.60
2019-03-20T16:35:42.533Z,7.40
2019-03-20T16:37:48.131Z,7.30
2019-03-20T16:39:53.654Z,7.40
2019-03-20T16:41:59.168Z,7.40
2019-03-20T16:44:04.943Z,7.40
2019-03-20T16:46:10.457Z,7.30
2019-03-20T16:48:15.986Z,7.30
2019-03-20T16:50:21.644Z,7.20
2019-03-20T16:52:28.234Z,7.20
2019-03-20T16:54:33.753Z,7.10
2019-03-20T16:56:39.285Z,6.90
2019-03-20T16:58:44.802Z,6.80
2019-03-20T17:00:50.320Z,6.70
2019-03-20T17:02:55.917Z,6.60
2019-03-20T17:05:01.442Z,6.60
2019-03-20T17:07:07.028Z,6.50
2019-03-20T17:09:12.572Z,6.50
2019-03-20T17:11:26.450Z,6.40
2019-03-20T17:13:25.272Z,6.30
2019-03-20T17:15:32.655Z,6.30
2019-03-20T17:17:38.195Z,6.30
2019-03-20T17:19:43.692Z,6.30
2019-03-20T17:21:49.239Z,6.20
2019-03-20T17:23:54.762Z,6.10
2019-03-20T17:26:00.274Z,6.00
2019-03-20T17:28:07.510Z,5.90
2019-03-20T17:30:21.620Z,5.90
2019-03-20T17:32:27.131Z,5.80
2019-03-20T17:34:32.699Z,5.60
2019-03-20T17:36:38.221Z,5.60
2019-03-20T17:38:44.812Z,5.50
2019-03-20T17:40:50.364Z,5.40
2019-03-20T17:42:55.957Z,5.40
2019-03-20T17:45:01.492Z,5.30
2019-03-20T17:47:07.084Z,5.20
2019-03-20T17:49:12.620Z,5.10
2019-03-20T17:51:18.233Z,5.00
2019-03-20T17:53:23.801Z,5.00
2019-03-20T17:55:29.409Z,5.00
2019-03-20T17:57:34.929Z,5.00
2019-03-20T17:59:40.473Z,5.00
2019-03-20T18:01:46.001Z,4.90
2019-03-20T18:03:51.536Z,4.80
2019-03-20T18:05:57.068Z,4.80
2019-03-20T18:08:02.670Z,4.70
2019-03-20T18:10:08.209Z,4.60
2019-03-20T18:12:13.759Z,4.70
2019-03-20T18:14:19.309Z,4.60
2019-03-20T18:16:24.900Z,4.50
2019-03-20T18:18:30.409Z,4.50
2019-03-20T18:20:36.596Z,4.40
2019-03-20T18:22:42.211Z,4.40
2019-03-20T18:24:47.825Z,4.30
2019-03-20T18:26:53.426Z,4.30
2019-03-20T18:28:58.964Z,4.30
2019-03-20T18:31:04.660Z,4.30
2019-03-20T18:33:10.255Z,4.50
2019-03-20T18:35:16.495Z,4.50
2019-03-20T18:37:23.119Z,4.60
2019-03-20T18:39:28.657Z,4.50
2019-03-20T18:41:34.202Z,4.50
2019-03-20T18:43:39.828Z,4.40
2019-03-20T18:45:45.366Z,4.40
2019-03-20T18:47:50.995Z,4.30
2019-03-20T18:49:56.549Z,4.20
2019-03-20T18:52:02.121Z,4.20
2019-03-20T18:54:07.629Z,4.30
2019-03-20T18:56:13.195Z,4.10
2019-03-20T18:58:18.722Z,4.10
2019-03-20T19:00:28.914Z,4.00
2019-03-20T19:02:34.478Z,4.00
2019-03-20T19:04:40.013Z,4.00
2019-03-20T19:06:45.924Z,4.00
2019-03-20T19:08:51.492Z,4.00
2019-03-20T19:10:57.103Z,4.00
2019-03-20T19:13:02.891Z,4.00
2019-03-20T19:15:10.932Z,4.00
2019-03-20T19:17:16.477Z,4.00
2019-03-20T19:19:22.056Z,4.00
2019-03-20T19:21:27.612Z,4.00
2019-03-20T19:23:33.158Z,4.30
2019-03-20T19:25:38.759Z,4.20
2019-03-20T19:27:44.383Z,4.00
2019-03-20T19:29:49.898Z,4.00
2019-03-20T19:31:55.829Z,4.00
2019-03-20T19:34:09.545Z,3.90
2019-03-20T19:36:14.739Z,3.80
2019-03-20T19:38:20.276Z,3.80
2019-03-20T19:40:25.841Z,3.70
2019-03-20T19:42:31.380Z,3.70
2019-03-20T19:44:36.909Z,3.60
2019-03-20T19:46:42.446Z,3.50
2019-03-20T19:48:49.053Z,3.50
2019-03-20T19:50:54.586Z,3.60
2019-03-20T19:53:00.132Z,3.50
2019-03-20T19:55:08.494Z,3.40
2019-03-20T19:57:14.069Z,3.40
2019-03-20T19:59:19.593Z,3.30
2019-03-20T20:01:25.188Z,3.30
2019-03-20T20:03:30.739Z,3.20
2019-03-20T20:05:36.348Z,3.10
2019-03-20T20:07:41.949Z,3.10
2019-03-20T20:09:47.493Z,3.10
2019-03-20T20:11:53.023Z,3.00
2019-03-20T20:13:58.547Z,3.00
2019-03-20T20:16:04.148Z,2.90
2019-03-20T20:18:09.683Z,2.90
2019-03-20T20:20:17.458Z,2.90
2019-03-20T20:22:22.999Z,2.90
2019-03-20T20:24:28.537Z,3.10
2019-03-20T20:26:34.074Z,3.50
2019-03-20T20:28:40.681Z,3.80
2019-03-20T20:30:46.209Z,4.00
2019-03-20T20:32:51.746Z,4.10
2019-03-20T20:34:57.285Z,4.20
2019-03-20T20:37:02.811Z,4.20
2019-03-20T20:39:08.430Z,4.30
2019-03-20T20:41:14.046Z,4.40
2019-03-20T20:43:19.571Z,4.50
2019-03-20T20:45:25.096Z,4.50
2019-03-20T20:47:30.641Z,4.50
2019-03-20T20:49:36.176Z,4.50
2019-03-20T20:51:41.711Z,4.50
2019-03-20T20:53:47.248Z,4.50
2019-03-20T20:55:52.782Z,4.60
2019-03-20T20:57:58.311Z,4.60
2019-03-20T21:00:05.949Z,4.50
2019-03-20T21:02:11.544Z,4.50
2019-03-20T21:04:17.082Z,4.50
2019-03-20T21:06:22.627Z,4.50
2019-03-20T21:08:28.157Z,4.50
2019-03-20T21:10:33.697Z,4.60
2019-03-20T21:12:39.267Z,4.70
2019-03-20T21:14:44.873Z,4.60
2019-03-20T21:16:50.399Z,4.60
2019-03-20T21:19:44.749Z,4.60
2019-03-20T21:21:59.293Z,4.60
2019-03-20T21:24:22.518Z,4.50
2019-03-20T21:26:59.717Z,4.50
2019-03-20T21:29:34.183Z,4.40
2019-03-20T21:32:11.709Z,4.40
2019-03-20T21:34:36.712Z,4.30
2019-03-20T21:37:09.813Z,4.30
2019-03-20T21:39:15.353Z,4.30
2019-03-20T21:41:32.916Z,4.30
2019-03-20T21:43:59.702Z,4.30
2019-03-20T21:46:26.224Z,4.30
2019-03-20T21:48:31.834Z,4.30
2019-03-20T21:50:49.194Z,4.30
2019-03-20T21:52:54.733Z,4.30
2019-03-20T21:55:18.196Z,4.30
2019-03-20T21:57:35.735Z,4.20
2019-03-20T22:00:02.169Z,4.20
2019-03-20T22:02:18.196Z,4.20
2019-03-20T22:04:24.834Z,4.10
2019-03-20T22:06:45.523Z,4.10
2019-03-20T22:08:51.094Z,4.10
2019-03-20T22:10:59.793Z,4.10
2019-03-20T22:13:20.629Z,4.00
2019-03-20T22:15:29.229Z,4.00
2019-03-20T22:17:57.430Z,3.90
2019-03-20T22:20:23.827Z,3.90
2019-03-20T22:22:50.024Z,3.80
2019-03-20T22:25:04.500Z,3.80
2019-03-20T22:27:41.882Z,3.80
2019-03-20T22:29:47.416Z,3.80
2019-03-20T22:32:14.527Z,3.70
2019-03-20T22:34:56.373Z,3.70
2019-03-20T22:37:01.901Z,3.60
2019-03-20T22:39:13.458Z,3.60
2019-03-20T22:41:31.116Z,3.60
2019-03-20T22:43:48.588Z,3.60
2019-03-20T22:46:30.438Z,3.70
2019-03-20T22:48:47.946Z,3.70
2019-03-20T22:51:18.661Z,3.60
2019-03-20T22:53:36.178Z,3.50
2019-03-20T22:55:53.739Z,3.50
2019-03-20T22:58:17.190Z,3.40
2019-03-20T23:00:24.079Z,3.40
2019-03-20T23:02:53.949Z,3.40
2019-03-20T23:05:00.529Z,3.30
2019-03-20T23:07:06.129Z,3.40
2019-03-20T23:09:11.732Z,3.40
2019-03-20T23:11:17.315Z,3.40
2019-03-20T23:13:22.907Z,3.40
2019-03-20T23:15:28.440Z,3.30
2019-03-20T23:17:33.975Z,3.30
2019-03-20T23:19:40.940Z,3.20
2019-03-20T23:21:46.497Z,3.20
2019-03-20T23:23:52.072Z,3.20
2019-03-20T23:25:57.664Z,3.20
2019-03-20T23:28:03.208Z,3.20
2019-03-20T23:30:27.243Z,3.10
2019-03-20T23:32:32.821Z,3.20
2019-03-20T23:34:38.386Z,3.10
2019-03-20T23:36:43.973Z,3.10
2019-03-20T23:38:49.666Z,3.10
2019-03-20T23:40:55.286Z,3.10
2019-03-20T23:43:04.417Z,3.10
2019-03-20T23:45:13.152Z,3.00
2019-03-20T23:47:21.852Z,2.90
2019-03-20T23:49:27.440Z,2.90
2019-03-20T23:51:35.114Z,2.80
2019-03-20T23:54:00.061Z,2.80
2019-03-20T23:56:05.591Z,2.90
2019-03-20T23:58:11.189Z,2.90
